createdAt,value
2024-02-24T00:00:06.781Z,1.00
2024-02-24T00:00:38.709Z,1.00
2024-02-24T00:01:10.650Z,1.00
2024-02-24T00:01:42.594Z,1.00
2024-02-24T00:02:14.504Z,1.00
2024-02-24T00:02:46.453Z,1.00
2024-02-24T00:03:19.437Z,1.00
2024-02-24T00:03:52.006Z,1.00
2024-02-24T00:04:23.974Z,1.00
2024-02-24T00:04:57.921Z,1.00
2024-02-24T00:05:29.880Z,1.00
2024-02-24T00:06:02.011Z,1.00
2024-02-24T00:06:34.060Z,1.00
2024-02-24T00:07:06.019Z,1.00
2024-02-24T00:07:37.973Z,1.00
2024-02-24T00:08:09.936Z,1.00
2024-02-24T00:08:43.466Z,1.00
2024-02-24T00:09:15.624Z,1.00
2024-02-24T00:09:47.541Z,1.00
2024-02-24T00:10:19.454Z,1.00
2024-02-24T00:10:51.430Z,1.00
2024-02-24T00:11:23.478Z,1.00
2024-02-24T00:11:55.538Z,1.00
2024-02-24T00:12:27.489Z,1.00
2024-02-24T00:12:59.479Z,1.00
2024-02-24T00:13:31.443Z,1.00
2024-02-24T00:14:03.360Z,1.00
2024-02-24T00:14:35.321Z,1.00
2024-02-24T00:15:07.732Z,1.00
2024-02-24T00:15:39.714Z,1.00
2024-02-24T00:16:13.965Z,1.00
2024-02-24T00:16:46.096Z,1.00
2024-02-24T00:17:18.342Z,1.00
2024-02-24T00:17:50.438Z,1.00
2024-02-24T00:18:22.666Z,1.00
2024-02-24T00:18:56.868Z,1.00
2024-02-24T00:19:28.863Z,1.00
2024-02-24T00:20:00.939Z,1.00
2024-02-24T00:20:32.974Z,1.00
2024-02-24T00:21:05.164Z,1.00
2024-02-24T00:21:37.073Z,1.00
2024-02-24T00:22:09.025Z,1.00
2024-02-24T00:22:41.625Z,1.00
2024-02-24T00:23:13.572Z,1.00
2024-02-24T00:23:45.581Z,1.00
2024-02-24T00:24:17.732Z,1.00
2024-02-24T00:24:49.785Z,1.00
2024-02-24T00:25:21.743Z,1.00
2024-02-24T00:25:53.651Z,1.00
2024-02-24T00:26:25.603Z,1.00
2024-02-24T00:26:57.535Z,1.00
2024-02-24T00:27:30.528Z,1.00
2024-02-24T00:28:02.459Z,1.00
2024-02-24T00:28:34.349Z,1.00
2024-02-24T00:29:06.299Z,1.00
2024-02-24T00:29:38.270Z,1.00
2024-02-24T00:30:10.473Z,1.00
2024-02-24T00:30:42.443Z,1.33
2024-02-24T00:31:14.329Z,2.00
2024-02-24T00:31:46.192Z,2.00
2024-02-24T00:32:18.375Z,2.00
2024-02-24T00:32:50.437Z,2.00
2024-02-24T00:33:22.483Z,2.00
2024-02-24T00:33:54.492Z,2.00
2024-02-24T00:34:26.412Z,2.00
2024-02-24T00:34:58.356Z,2.00
2024-02-24T00:35:30.507Z,2.00
2024-02-24T00:36:04.977Z,2.00
2024-02-24T00:36:36.980Z,2.00
2024-02-24T00:37:08.851Z,2.00
2024-02-24T00:37:40.735Z,2.00
2024-02-24T00:38:13.602Z,2.00
2024-02-24T00:38:45.704Z,2.00
2024-02-24T00:39:17.611Z,2.00
2024-02-24T00:39:49.624Z,2.00
2024-02-24T00:40:21.581Z,2.00
2024-02-24T00:40:53.506Z,2.00
2024-02-24T00:41:25.586Z,2.00
2024-02-24T00:41:57.463Z,2.00
2024-02-24T00:42:29.317Z,2.00
2024-02-24T00:43:01.220Z,2.00
2024-02-24T00:43:33.169Z,2.00
2024-02-24T00:44:05.234Z,2.00
2024-02-24T00:44:37.126Z,2.00
2024-02-24T00:45:09.165Z,2.00
2024-02-24T00:45:41.092Z,2.00
2024-02-24T00:46:13.065Z,2.00
2024-02-24T00:46:44.999Z,2.00
2024-02-24T00:47:16.946Z,2.00
2024-02-24T00:47:49.044Z,2.00
2024-02-24T00:48:21.100Z,2.00
2024-02-24T00:48:53.082Z,2.00
2024-02-24T00:49:25.083Z,2.00
2024-02-24T00:49:57.585Z,2.00
2024-02-24T00:50:30.659Z,2.00
2024-02-24T00:51:03.052Z,2.00
2024-02-24T00:51:34.998Z,2.00
2024-02-24T00:52:06.943Z,2.00
2024-02-24T00:52:38.856Z,2.00
2024-02-24T00:53:10.779Z,2.00
2024-02-24T00:53:42.731Z,2.00
2024-02-24T00:54:14.802Z,2.00
2024-02-24T00:54:46.792Z,2.00
2024-02-24T00:55:18.749Z,2.00
2024-02-24T00:55:51.259Z,2.00
2024-02-24T00:56:23.192Z,2.00
2024-02-24T00:56:55.184Z,2.00
2024-02-24T00:57:27.126Z,2.00
2024-02-24T00:57:59.430Z,2.00
2024-02-24T00:58:31.323Z,2.00
2024-02-24T00:59:03.433Z,2.00
2024-02-24T00:59:35.470Z,2.00
2024-02-24T01:00:08.155Z,2.00
2024-02-24T01:00:40.101Z,2.00
2024-02-24T01:01:12.061Z,2.00
2024-02-24T01:01:43.977Z,2.00
2024-02-24T01:02:16.027Z,2.00
2024-02-24T01:02:48.112Z,2.00
2024-02-24T01:03:20.037Z,2.00
2024-02-24T01:03:52.008Z,2.00
2024-02-24T01:04:25.873Z,2.00
2024-02-24T01:04:58.277Z,2.00
2024-02-24T01:05:30.277Z,2.00
2024-02-24T01:06:02.231Z,2.00
2024-02-24T01:06:34.142Z,2.00
2024-02-24T01:07:06.754Z,2.00
2024-02-24T01:07:38.681Z,2.00
2024-02-24T01:08:10.786Z,2.00
2024-02-24T01:08:42.854Z,2.00
2024-02-24T01:09:14.797Z,2.00
2024-02-24T01:09:46.711Z,2.00
2024-02-24T01:10:18.651Z,2.00
2024-02-24T01:10:50.681Z,2.00
2024-02-24T01:11:22.768Z,2.00
2024-02-24T01:11:54.909Z,2.00
2024-02-24T01:12:26.945Z,2.00
2024-02-24T01:12:58.838Z,2.00
2024-02-24T01:13:30.815Z,2.00
2024-02-24T01:14:02.911Z,2.00
2024-02-24T01:14:34.890Z,2.00
2024-02-24T01:15:07.258Z,2.00
2024-02-24T01:15:39.402Z,2.00
2024-02-24T01:16:11.489Z,2.00
2024-02-24T01:16:45.698Z,2.00
2024-02-24T01:17:17.737Z,2.00
2024-02-24T01:17:52.225Z,2.00
2024-02-24T01:18:24.802Z,2.00
2024-02-24T01:18:56.983Z,2.00
2024-02-24T01:19:29.054Z,2.00
2024-02-24T01:20:00.989Z,2.00
2024-02-24T01:20:32.982Z,2.00
2024-02-24T01:21:05.407Z,2.00
2024-02-24T01:21:43.549Z,2.00
2024-02-24T01:22:15.487Z,2.00
2024-02-24T01:22:51.419Z,2.00
2024-02-24T01:23:23.910Z,2.00
2024-02-24T01:23:55.994Z,2.00
2024-02-24T01:24:27.925Z,2.00
2024-02-24T01:24:59.827Z,2.00
2024-02-24T01:25:31.758Z,2.00
2024-02-24T01:26:04.061Z,2.00
2024-02-24T01:26:36.198Z,2.00
2024-02-24T01:27:08.163Z,2.00
2024-02-24T01:27:40.078Z,2.00
2024-02-24T01:28:12.078Z,2.00
2024-02-24T01:28:46.797Z,2.00
2024-02-24T01:29:18.785Z,2.00
2024-02-24T01:29:50.758Z,2.00
2024-02-24T01:30:23.606Z,2.00
2024-02-24T01:30:55.531Z,2.00
2024-02-24T01:31:27.473Z,2.00
2024-02-24T01:32:02.406Z,2.00
2024-02-24T01:32:34.807Z,2.00
2024-02-24T01:33:07.127Z,2.00
2024-02-24T01:33:39.170Z,2.00
2024-02-24T01:34:11.157Z,2.00
2024-02-24T01:34:43.304Z,2.00
2024-02-24T01:35:15.298Z,2.00
2024-02-24T01:35:47.269Z,2.00
2024-02-24T01:36:19.246Z,2.00
2024-02-24T01:36:51.445Z,2.00
2024-02-24T01:37:24.843Z,2.00
2024-02-24T01:37:56.852Z,2.00
2024-02-24T01:38:28.770Z,2.00
2024-02-24T01:39:00.694Z,2.00
2024-02-24T01:39:33.349Z,2.00
2024-02-24T01:40:06.972Z,2.00
2024-02-24T01:40:38.891Z,2.00
2024-02-24T01:41:11.690Z,2.00
2024-02-24T01:41:44.743Z,2.00
2024-02-24T01:42:16.757Z,2.00
2024-02-24T01:42:48.688Z,2.00
2024-02-24T01:43:30.703Z,2.00
2024-02-24T01:44:02.575Z,2.00
2024-02-24T01:44:34.607Z,2.00
2024-02-24T01:45:07.080Z,2.00
2024-02-24T01:45:39.051Z,2.00
2024-02-24T01:46:14.699Z,2.00
2024-02-24T01:46:49.646Z,2.00
2024-02-24T01:47:24.281Z,2.00
2024-02-24T01:47:58.210Z,2.00
2024-02-24T01:48:32.227Z,2.00
2024-02-24T01:49:04.524Z,2.00
2024-02-24T01:49:37.362Z,2.00
2024-02-24T01:50:13.849Z,2.00
2024-02-24T01:50:48.017Z,2.00
2024-02-24T01:51:20.244Z,2.00
2024-02-24T01:51:52.545Z,2.00
2024-02-24T01:52:26.730Z,3.00
2024-02-24T01:52:58.938Z,3.00
2024-02-24T01:53:32.382Z,3.00
2024-02-24T01:54:04.525Z,3.00
2024-02-24T01:54:37.582Z,3.00
2024-02-24T01:55:11.036Z,3.00
2024-02-24T01:55:44.654Z,3.00
2024-02-24T01:56:16.766Z,3.00
2024-02-24T01:56:48.869Z,3.00
2024-02-24T01:57:21.426Z,3.00
2024-02-24T01:57:55.469Z,3.00
2024-02-24T01:58:30.203Z,3.00
2024-02-24T01:59:02.299Z,3.00
2024-02-24T01:59:34.564Z,3.00
2024-02-24T02:00:07.188Z,3.00
2024-02-24T02:00:39.335Z,3.00
2024-02-24T02:01:12.002Z,3.00
2024-02-24T02:01:44.113Z,3.00
2024-02-24T02:02:16.631Z,3.00
2024-02-24T02:02:49.117Z,3.00
2024-02-24T02:03:21.064Z,3.00
2024-02-24T02:03:53.774Z,3.00
2024-02-24T02:04:26.453Z,3.00
2024-02-24T02:04:58.444Z,3.00
2024-02-24T02:05:30.942Z,3.00
2024-02-24T02:06:03.844Z,3.00
2024-02-24T02:06:36.150Z,3.00
2024-02-24T02:07:08.467Z,3.00
2024-02-24T02:07:40.376Z,3.00
2024-02-24T02:08:12.337Z,3.00
2024-02-24T02:08:44.460Z,3.00
2024-02-24T02:09:16.487Z,3.00
2024-02-24T02:09:58.872Z,3.00
2024-02-24T02:10:54.115Z,3.00
2024-02-24T02:11:26.249Z,3.00
2024-02-24T02:12:03.280Z,3.00
2024-02-24T02:12:37.341Z,3.00
2024-02-24T02:13:09.374Z,3.00
2024-02-24T02:13:41.271Z,3.00
2024-02-24T02:14:13.233Z,3.00
2024-02-24T02:14:45.274Z,3.00
2024-02-24T02:15:17.279Z,3.00
2024-02-24T02:15:57.665Z,3.00
2024-02-24T02:16:29.647Z,3.00
2024-02-24T02:17:01.610Z,3.00
2024-02-24T02:17:34.006Z,3.00
2024-02-24T02:18:06.855Z,3.00
2024-02-24T02:18:39.033Z,3.00
2024-02-24T02:19:11.163Z,3.00
2024-02-24T02:19:43.301Z,3.00
2024-02-24T02:20:15.214Z,3.00
2024-02-24T02:20:51.157Z,3.00
2024-02-24T02:21:24.406Z,3.00
2024-02-24T02:22:02.097Z,3.00
2024-02-24T02:22:34.095Z,3.00
2024-02-24T02:23:06.172Z,3.00
2024-02-24T02:23:38.310Z,3.00
2024-02-24T02:24:12.196Z,3.00
2024-02-24T02:24:49.582Z,3.00
2024-02-24T02:25:21.564Z,3.00
2024-02-24T02:25:55.852Z,3.00
2024-02-24T02:26:27.764Z,3.00
2024-02-24T02:26:59.692Z,3.00
2024-02-24T02:27:31.689Z,3.00
2024-02-24T02:28:03.831Z,3.00
2024-02-24T02:28:35.797Z,3.00
2024-02-24T02:29:07.719Z,3.00
2024-02-24T02:29:39.838Z,3.00
2024-02-24T02:30:12.142Z,3.00
2024-02-24T02:30:44.170Z,3.00
2024-02-24T02:31:16.497Z,3.00
2024-02-24T02:31:48.427Z,3.00
2024-02-24T02:32:20.627Z,3.00
2024-02-24T02:32:52.831Z,3.00
2024-02-24T02:33:25.108Z,3.00
2024-02-24T02:33:57.270Z,3.00
2024-02-24T02:34:29.661Z,3.00
2024-02-24T02:35:01.583Z,3.00
2024-02-24T02:35:33.548Z,3.00
2024-02-24T02:36:06.371Z,3.00
2024-02-24T02:36:38.321Z,3.00
2024-02-24T02:37:10.205Z,3.00
2024-02-24T02:37:42.077Z,3.00
2024-02-24T02:38:14.088Z,3.00
2024-02-24T02:38:46.076Z,2.67
2024-02-24T02:39:18.015Z,2.00
2024-02-24T02:39:50.030Z,2.00
2024-02-24T02:40:22.221Z,2.00
2024-02-24T02:40:54.526Z,2.00
2024-02-24T02:41:26.615Z,2.00
2024-02-24T02:41:58.862Z,2.00
2024-02-24T02:42:30.828Z,2.00
2024-02-24T02:43:03.035Z,2.00
2024-02-24T02:43:35.088Z,2.00
2024-02-24T02:44:07.121Z,2.00
2024-02-24T02:44:39.107Z,2.00
2024-02-24T02:45:11.210Z,2.00
2024-02-24T02:45:43.398Z,2.00
2024-02-24T02:46:15.291Z,2.00
2024-02-24T02:46:50.850Z,2.00
2024-02-24T02:47:24.208Z,2.00
2024-02-24T02:47:56.709Z,2.00
2024-02-24T02:48:28.854Z,2.00
2024-02-24T02:49:01.066Z,2.00
2024-02-24T02:49:33.272Z,2.00
2024-02-24T02:50:06.861Z,2.00
2024-02-24T02:50:38.846Z,2.00
2024-02-24T02:51:10.809Z,2.00
2024-02-24T02:51:42.684Z,2.00
2024-02-24T02:52:14.614Z,2.00
2024-02-24T02:52:46.746Z,2.00
2024-02-24T02:53:19.229Z,2.00
2024-02-24T02:53:51.236Z,2.00
2024-02-24T02:54:23.144Z,2.00
2024-02-24T02:54:55.024Z,2.00
2024-02-24T02:55:27.365Z,2.00
2024-02-24T02:55:59.254Z,2.00
2024-02-24T02:56:31.182Z,2.00
2024-02-24T02:57:03.378Z,2.00
2024-02-24T02:57:35.391Z,2.00
2024-02-24T02:58:08.141Z,2.00
2024-02-24T02:58:40.077Z,2.00
2024-02-24T02:59:11.977Z,2.00
2024-02-24T02:59:44.098Z,2.00
2024-02-24T03:00:16.543Z,2.00
2024-02-24T03:00:48.684Z,2.00
2024-02-24T03:01:20.613Z,2.00
2024-02-24T03:01:53.129Z,2.00
2024-02-24T03:02:25.074Z,2.00
2024-02-24T03:02:57.070Z,2.00
2024-02-24T03:03:29.042Z,2.00
2024-02-24T03:04:01.068Z,2.00
2024-02-24T03:04:33.030Z,2.00
2024-02-24T03:05:05.435Z,2.00
2024-02-24T03:05:37.444Z,2.00
2024-02-24T03:06:09.636Z,2.00
2024-02-24T03:06:41.718Z,2.00
2024-02-24T03:07:13.764Z,2.00
2024-02-24T03:07:45.721Z,2.00
2024-02-24T03:08:17.904Z,2.00
2024-02-24T03:08:49.954Z,2.00
2024-02-24T03:09:22.004Z,2.00
2024-02-24T03:09:53.894Z,2.00
2024-02-24T03:10:25.959Z,2.00
2024-02-24T03:10:58.075Z,2.00
2024-02-24T03:11:31.992Z,2.00
2024-02-24T03:12:04.186Z,2.00
2024-02-24T03:12:36.387Z,3.00
2024-02-24T03:13:08.411Z,3.00
2024-02-24T03:13:40.384Z,3.00
2024-02-24T03:14:12.403Z,3.00
2024-02-24T03:14:44.745Z,3.00
2024-02-24T03:15:16.863Z,3.00
2024-02-24T03:15:48.783Z,3.00
2024-02-24T03:16:20.684Z,3.00
2024-02-24T03:16:55.069Z,3.00
2024-02-24T03:17:27.348Z,3.00
2024-02-24T03:17:59.425Z,3.00
2024-02-24T03:18:31.544Z,3.00
2024-02-24T03:19:04.689Z,3.00
2024-02-24T03:19:37.297Z,3.00
2024-02-24T03:20:10.133Z,3.00
2024-02-24T03:20:42.146Z,3.00
2024-02-24T03:21:33.762Z,3.00
2024-02-24T03:22:05.724Z,3.00
2024-02-24T03:22:39.620Z,3.00
2024-02-24T03:23:11.600Z,3.00
2024-02-24T03:23:43.668Z,3.00
2024-02-24T03:24:15.604Z,3.00
2024-02-24T03:24:47.586Z,3.00
2024-02-24T03:25:19.896Z,3.00
2024-02-24T03:25:51.810Z,3.00
2024-02-24T03:26:23.900Z,3.00
2024-02-24T03:26:55.867Z,3.00
2024-02-24T03:27:27.798Z,3.00
2024-02-24T03:27:59.787Z,3.67
2024-02-24T03:28:31.689Z,4.00
2024-02-24T03:29:03.622Z,4.00
2024-02-24T03:29:35.744Z,4.00
2024-02-24T03:30:08.351Z,4.00
2024-02-24T03:30:40.298Z,4.00
2024-02-24T03:31:12.180Z,4.00
2024-02-24T03:31:44.114Z,4.00
2024-02-24T03:32:16.109Z,4.00
2024-02-24T03:32:48.115Z,4.00
2024-02-24T03:33:20.202Z,4.00
2024-02-24T03:33:54.610Z,4.00
2024-02-24T03:34:26.748Z,4.00
2024-02-24T03:34:58.678Z,4.00
2024-02-24T03:35:30.728Z,4.00
2024-02-24T03:36:03.198Z,4.00
2024-02-24T03:36:35.151Z,4.00
2024-02-24T03:37:07.065Z,4.00
2024-02-24T03:37:39.056Z,4.00
2024-02-24T03:38:10.926Z,4.00
2024-02-24T03:38:43.201Z,4.00
2024-02-24T03:39:15.262Z,4.00
2024-02-24T03:39:47.291Z,4.00
2024-02-24T03:40:19.309Z,4.00
2024-02-24T03:40:51.215Z,4.00
2024-02-24T03:41:23.116Z,4.00
2024-02-24T03:41:55.200Z,4.00
2024-02-24T03:42:27.183Z,4.00
2024-02-24T03:43:00.235Z,4.00
2024-02-24T03:43:32.152Z,4.00
2024-02-24T03:44:04.172Z,4.00
2024-02-24T03:44:36.107Z,4.00
2024-02-24T03:45:08.524Z,4.00
2024-02-24T03:45:40.384Z,4.00
2024-02-24T03:46:12.355Z,4.00
2024-02-24T03:46:44.229Z,4.00
2024-02-24T03:47:16.357Z,4.00
2024-02-24T03:47:48.322Z,4.00
2024-02-24T03:48:20.436Z,4.00
2024-02-24T03:48:52.496Z,4.00
2024-02-24T03:49:24.515Z,4.00
2024-02-24T03:49:56.495Z,4.00
2024-02-24T03:50:28.441Z,4.00
2024-02-24T03:51:01.627Z,4.00
2024-02-24T03:51:33.632Z,4.00
2024-02-24T03:52:05.951Z,4.00
2024-02-24T03:52:39.185Z,4.00
2024-02-24T03:53:11.085Z,4.00
2024-02-24T03:53:43.083Z,4.00
2024-02-24T03:54:15.046Z,4.00
2024-02-24T03:54:46.936Z,4.00
2024-02-24T03:55:18.830Z,4.00
2024-02-24T03:55:53.609Z,4.00
2024-02-24T03:56:25.553Z,4.00
2024-02-24T03:56:57.558Z,4.00
2024-02-24T03:57:29.442Z,4.00
2024-02-24T03:58:01.315Z,4.00
2024-02-24T03:58:33.281Z,4.00
2024-02-24T03:59:05.170Z,4.00
2024-02-24T03:59:37.249Z,4.00
2024-02-24T04:00:09.963Z,4.00
2024-02-24T04:00:41.925Z,4.00
2024-02-24T04:01:13.934Z,4.00
2024-02-24T04:01:46.129Z,4.00
2024-02-24T04:02:18.114Z,4.00
2024-02-24T04:02:50.063Z,4.00
2024-02-24T04:03:22.081Z,4.00
2024-02-24T04:03:55.453Z,4.00
2024-02-24T04:04:27.376Z,4.00
2024-02-24T04:05:01.993Z,4.00
2024-02-24T04:05:34.042Z,4.00
2024-02-24T04:06:07.284Z,4.00
2024-02-24T04:06:39.288Z,4.00
2024-02-24T04:07:11.729Z,4.00
2024-02-24T04:07:43.655Z,4.00
2024-02-24T04:08:16.238Z,4.00
2024-02-24T04:08:48.380Z,4.00
2024-02-24T04:09:20.352Z,4.00
2024-02-24T04:09:52.354Z,3.67
2024-02-24T04:10:24.341Z,3.00
2024-02-24T04:10:56.305Z,3.00
2024-02-24T04:11:28.326Z,3.00
2024-02-24T04:12:00.388Z,3.00
2024-02-24T04:12:32.745Z,3.00
2024-02-24T04:13:04.794Z,3.00
2024-02-24T04:13:36.676Z,3.00
2024-02-24T04:14:08.664Z,3.33
2024-02-24T04:14:40.670Z,4.00
2024-02-24T04:15:16.583Z,4.00
2024-02-24T04:15:49.337Z,4.00
2024-02-24T04:16:21.485Z,4.00
2024-02-24T04:16:53.421Z,4.00
2024-02-24T04:17:25.353Z,4.00
2024-02-24T04:17:57.549Z,4.00
2024-02-24T04:18:29.589Z,4.00
2024-02-24T04:19:02.325Z,4.00
2024-02-24T04:19:34.409Z,4.00
2024-02-24T04:20:07.091Z,4.00
2024-02-24T04:20:38.997Z,4.00
2024-02-24T04:21:10.908Z,4.00
2024-02-24T04:21:42.810Z,4.00
2024-02-24T04:22:14.681Z,4.00
2024-02-24T04:22:46.658Z,4.00
2024-02-24T04:23:18.633Z,4.00
2024-02-24T04:23:52.170Z,4.00
2024-02-24T04:24:24.342Z,4.00
2024-02-24T04:24:56.349Z,4.67
2024-02-24T04:25:28.275Z,5.00
2024-02-24T04:26:00.337Z,5.00
2024-02-24T04:26:32.404Z,5.00
2024-02-24T04:27:04.579Z,5.00
2024-02-24T04:27:37.433Z,5.00
2024-02-24T04:28:13.451Z,5.00
2024-02-24T04:28:45.359Z,5.00
2024-02-24T04:29:17.355Z,5.00
2024-02-24T04:29:49.302Z,5.00
2024-02-24T04:30:21.344Z,5.00
2024-02-24T04:30:53.302Z,5.00
2024-02-24T04:31:25.219Z,5.00
2024-02-24T04:31:57.174Z,5.00
2024-02-24T04:32:29.972Z,5.67
2024-02-24T04:33:02.263Z,6.00
2024-02-24T04:33:34.380Z,6.00
2024-02-24T04:34:06.445Z,6.00
2024-02-24T04:34:39.411Z,6.00
2024-02-24T04:35:12.499Z,6.00
2024-02-24T04:35:44.395Z,6.00
2024-02-24T04:36:16.344Z,6.00
2024-02-24T04:36:48.488Z,6.00
2024-02-24T04:37:20.476Z,6.00
2024-02-24T04:37:52.386Z,6.00
2024-02-24T04:38:24.362Z,6.00
2024-02-24T04:38:56.363Z,6.00
2024-02-24T04:39:28.265Z,6.00
2024-02-24T04:40:00.271Z,6.00
2024-02-24T04:40:32.251Z,6.00
2024-02-24T04:41:04.293Z,6.00
2024-02-24T04:41:37.050Z,6.00
2024-02-24T04:42:09.021Z,6.00
2024-02-24T04:42:40.915Z,6.00
2024-02-24T04:43:12.884Z,6.00
2024-02-24T04:43:44.862Z,6.00
2024-02-24T04:44:16.811Z,6.00
2024-02-24T04:44:50.913Z,6.00
2024-02-24T04:45:22.859Z,6.00
2024-02-24T04:45:54.779Z,6.33
2024-02-24T04:46:26.671Z,7.00
2024-02-24T04:46:58.673Z,7.00
2024-02-24T04:47:30.705Z,7.00
2024-02-24T04:48:02.889Z,7.00
2024-02-24T04:48:35.036Z,7.00
2024-02-24T04:49:07.124Z,7.00
2024-02-24T04:49:39.183Z,7.00
2024-02-24T04:50:11.313Z,7.00
2024-02-24T04:50:43.368Z,7.00
2024-02-24T04:51:15.304Z,7.00
2024-02-24T04:51:47.213Z,7.00
2024-02-24T04:52:19.323Z,7.00
2024-02-24T04:52:51.881Z,7.00
2024-02-24T04:53:23.835Z,7.00
2024-02-24T04:53:55.825Z,7.00
2024-02-24T04:54:27.673Z,7.00
2024-02-24T04:54:59.580Z,7.00
2024-02-24T04:55:31.569Z,7.00
2024-02-24T04:56:03.694Z,7.00
2024-02-24T04:56:35.802Z,7.00
2024-02-24T04:57:07.876Z,7.00
2024-02-24T04:57:39.799Z,7.00
2024-02-24T04:58:11.741Z,7.00
2024-02-24T04:58:44.239Z,7.00
2024-02-24T04:59:16.189Z,7.00
2024-02-24T04:59:48.278Z,7.00
2024-02-24T05:00:20.443Z,7.00
2024-02-24T05:00:52.497Z,7.00
2024-02-24T05:01:24.454Z,7.00
2024-02-24T05:01:56.387Z,7.00
2024-02-24T05:02:28.341Z,7.00
2024-02-24T05:03:00.317Z,6.00
2024-02-24T05:03:32.223Z,6.00
2024-02-24T05:04:04.164Z,6.00
2024-02-24T05:04:36.113Z,6.00
2024-02-24T05:05:08.694Z,6.00
2024-02-24T05:05:42.578Z,6.00
2024-02-24T05:06:14.802Z,6.00
2024-02-24T05:06:46.802Z,6.00
2024-02-24T05:07:18.769Z,6.00
2024-02-24T05:07:50.679Z,6.00
2024-02-24T05:08:22.763Z,6.00
2024-02-24T05:08:54.801Z,6.00
2024-02-24T05:09:26.866Z,6.00
2024-02-24T05:09:58.993Z,6.00
2024-02-24T05:10:30.927Z,6.00
2024-02-24T05:11:02.851Z,6.00
2024-02-24T05:11:34.890Z,6.00
2024-02-24T05:12:07.177Z,6.00
2024-02-24T05:12:39.238Z,6.00
2024-02-24T05:13:11.121Z,6.00
2024-02-24T05:13:43.063Z,6.00
2024-02-24T05:14:18.682Z,6.00
2024-02-24T05:14:50.737Z,6.00
2024-02-24T05:15:22.757Z,6.00
2024-02-24T05:15:54.646Z,6.00
2024-02-24T05:16:26.570Z,6.00
2024-02-24T05:16:58.495Z,6.00
2024-02-24T05:17:30.579Z,6.00
2024-02-24T05:18:02.922Z,6.00
2024-02-24T05:18:35.073Z,6.00
2024-02-24T05:19:07.455Z,6.00
2024-02-24T05:19:39.406Z,6.00
2024-02-24T05:20:13.978Z,6.00
2024-02-24T05:20:46.143Z,6.00
2024-02-24T05:21:22.325Z,6.00
2024-02-24T05:21:56.255Z,6.00
2024-02-24T05:22:28.531Z,6.00
2024-02-24T05:23:02.151Z,6.00
2024-02-24T05:23:34.123Z,6.00
2024-02-24T05:24:07.237Z,6.00
2024-02-24T05:24:39.320Z,6.00
2024-02-24T05:25:11.306Z,6.00
2024-02-24T05:25:43.975Z,6.00
2024-02-24T05:26:27.183Z,6.00
2024-02-24T05:26:59.530Z,6.00
2024-02-24T05:27:34.422Z,6.00
2024-02-24T05:28:06.491Z,6.00
2024-02-24T05:28:38.440Z,6.00
2024-02-24T05:29:10.386Z,6.00
2024-02-24T05:29:47.476Z,6.00
2024-02-24T05:30:19.691Z,6.00
2024-02-24T05:30:51.759Z,6.00
2024-02-24T05:31:24.404Z,6.00
2024-02-24T05:31:56.480Z,6.00
2024-02-24T05:32:28.537Z,6.00
2024-02-24T05:33:00.601Z,6.00
2024-02-24T05:33:32.687Z,6.00
2024-02-24T05:34:04.723Z,6.00
2024-02-24T05:34:36.710Z,6.00
2024-02-24T05:35:09.248Z,6.00
2024-02-24T05:35:41.261Z,6.00
2024-02-24T05:36:15.159Z,6.00
2024-02-24T05:36:47.168Z,6.00
2024-02-24T05:37:19.227Z,6.00
2024-02-24T05:37:51.350Z,6.00
2024-02-24T05:38:23.271Z,6.00
2024-02-24T05:38:55.250Z,6.00
2024-02-24T05:39:27.230Z,6.00
2024-02-24T05:39:59.751Z,6.00
2024-02-24T05:40:31.744Z,6.00
2024-02-24T05:41:04.055Z,6.00
2024-02-24T05:41:36.205Z,6.00
2024-02-24T05:42:08.506Z,6.00
2024-02-24T05:42:42.673Z,6.00
2024-02-24T05:43:14.599Z,6.00
2024-02-24T05:43:46.474Z,6.00
2024-02-24T05:44:18.726Z,6.00
2024-02-24T05:44:50.721Z,6.00
2024-02-24T05:45:22.672Z,6.00
2024-02-24T05:46:00.508Z,6.00
2024-02-24T05:46:33.985Z,6.00
2024-02-24T05:47:06.270Z,6.00
2024-02-24T05:47:38.566Z,6.00
2024-02-24T05:48:10.692Z,6.00
2024-02-24T05:48:42.781Z,6.00
2024-02-24T05:49:14.786Z,6.00
2024-02-24T05:49:46.733Z,6.00
2024-02-24T05:50:18.689Z,6.00
2024-02-24T05:50:50.859Z,6.00
2024-02-24T05:51:22.943Z,6.00
2024-02-24T05:51:54.877Z,6.00
2024-02-24T05:52:26.763Z,6.00
2024-02-24T05:52:58.707Z,6.00
2024-02-24T05:53:30.549Z,6.00
2024-02-24T05:54:02.517Z,6.00
2024-02-24T05:54:34.461Z,6.00
2024-02-24T05:55:09.082Z,6.00
2024-02-24T05:55:44.391Z,6.00
2024-02-24T05:56:17.153Z,6.00
2024-02-24T05:56:49.172Z,6.00
2024-02-24T05:57:21.084Z,6.00
2024-02-24T05:57:53.000Z,6.00
2024-02-24T05:58:24.961Z,6.00
2024-02-24T05:58:56.896Z,6.00
2024-02-24T05:59:29.498Z,6.67
2024-02-24T06:00:01.601Z,7.00
2024-02-24T06:00:33.528Z,7.00
2024-02-24T06:01:05.557Z,7.00
2024-02-24T06:01:37.518Z,7.00
2024-02-24T06:02:09.597Z,7.00
2024-02-24T06:02:41.672Z,7.00
2024-02-24T06:03:13.713Z,7.00
2024-02-24T06:03:45.950Z,7.00
2024-02-24T06:04:19.023Z,7.00
2024-02-24T06:04:51.946Z,7.00
2024-02-24T06:05:23.926Z,7.00
2024-02-24T06:05:56.001Z,7.00
2024-02-24T06:06:28.793Z,7.00
2024-02-24T06:07:00.862Z,7.00
2024-02-24T06:07:33.407Z,7.00
2024-02-24T06:08:06.507Z,7.00
2024-02-24T06:08:38.636Z,7.00
2024-02-24T06:09:11.371Z,7.00
2024-02-24T06:09:43.377Z,7.00
2024-02-24T06:10:15.333Z,7.00
2024-02-24T06:10:48.371Z,6.67
2024-02-24T06:11:20.435Z,6.00
2024-02-24T06:11:52.485Z,6.00
2024-02-24T06:12:24.868Z,6.00
2024-02-24T06:12:56.789Z,6.00
2024-02-24T06:13:28.686Z,6.00
2024-02-24T06:14:00.602Z,6.00
2024-02-24T06:14:32.526Z,6.00
2024-02-24T06:15:04.772Z,6.00
2024-02-24T06:15:36.660Z,6.00
2024-02-24T06:16:08.937Z,6.00
2024-02-24T06:16:40.839Z,6.00
2024-02-24T06:17:12.878Z,6.00
2024-02-24T06:17:44.893Z,6.00
2024-02-24T06:18:17.184Z,6.00
2024-02-24T06:18:49.425Z,6.00
2024-02-24T06:19:21.453Z,6.00
2024-02-24T06:19:53.403Z,6.00
2024-02-24T06:20:25.517Z,6.00
2024-02-24T06:20:57.768Z,6.00
2024-02-24T06:21:33.520Z,6.00
2024-02-24T06:22:05.523Z,6.00
2024-02-24T06:22:37.419Z,6.00
2024-02-24T06:23:09.326Z,6.00
2024-02-24T06:23:41.336Z,6.00
2024-02-24T06:24:13.625Z,6.00
2024-02-24T06:24:45.514Z,6.00
2024-02-24T06:25:17.657Z,6.00
2024-02-24T06:25:49.611Z,6.00
2024-02-24T06:26:21.492Z,6.00
2024-02-24T06:26:53.463Z,6.00
2024-02-24T06:27:25.896Z,5.33
2024-02-24T06:27:57.984Z,5.00
2024-02-24T06:28:30.203Z,5.00
2024-02-24T06:29:02.085Z,5.00
2024-02-24T06:29:34.201Z,5.00
2024-02-24T06:30:07.503Z,5.00
2024-02-24T06:30:39.727Z,5.00
2024-02-24T06:31:12.578Z,5.00
2024-02-24T06:31:44.495Z,5.00
2024-02-24T06:32:16.388Z,5.00
2024-02-24T06:32:48.821Z,5.00
2024-02-24T06:33:20.930Z,5.00
2024-02-24T06:33:52.978Z,5.00
2024-02-24T06:34:25.022Z,5.00
2024-02-24T06:34:57.017Z,5.00
2024-02-24T06:35:28.909Z,5.00
2024-02-24T06:36:00.953Z,5.00
2024-02-24T06:36:32.831Z,5.00
2024-02-24T06:37:04.849Z,5.00
2024-02-24T06:37:36.786Z,5.00
2024-02-24T06:38:08.780Z,5.00
2024-02-24T06:38:40.762Z,5.00
2024-02-24T06:39:12.874Z,5.00
2024-02-24T06:39:44.855Z,5.00
2024-02-24T06:40:25.911Z,5.00
2024-02-24T06:41:05.094Z,5.00
2024-02-24T06:41:37.029Z,5.00
2024-02-24T06:42:08.990Z,5.00
2024-02-24T06:42:40.900Z,5.00
2024-02-24T06:43:13.122Z,5.00
2024-02-24T06:43:45.858Z,5.00
2024-02-24T06:44:18.540Z,5.00
2024-02-24T06:44:50.466Z,5.00
2024-02-24T06:45:22.468Z,4.67
2024-02-24T06:45:54.446Z,4.00
2024-02-24T06:46:29.042Z,4.00
2024-02-24T06:47:04.438Z,4.00
2024-02-24T06:47:41.010Z,4.00
2024-02-24T06:48:13.071Z,4.00
2024-02-24T06:48:47.787Z,4.00
2024-02-24T06:49:20.625Z,4.00
2024-02-24T06:49:52.853Z,4.00
2024-02-24T06:50:24.845Z,4.00
2024-02-24T06:50:56.814Z,4.00
2024-02-24T06:51:28.713Z,4.00
2024-02-24T06:52:00.691Z,4.00
2024-02-24T06:52:32.594Z,4.00
2024-02-24T06:53:06.923Z,4.00
2024-02-24T06:53:38.851Z,4.00
2024-02-24T06:54:10.847Z,4.00
2024-02-24T06:54:42.849Z,4.00
2024-02-24T06:55:14.877Z,4.00
2024-02-24T06:55:46.780Z,4.00
2024-02-24T06:56:21.696Z,4.00
2024-02-24T06:56:53.729Z,4.00
2024-02-24T06:57:25.747Z,4.00
2024-02-24T06:57:57.742Z,4.00
2024-02-24T06:58:29.671Z,4.00
2024-02-24T06:59:07.164Z,4.00
2024-02-24T06:59:39.202Z,4.00
2024-02-24T07:00:13.416Z,4.00
2024-02-24T07:00:45.463Z,4.00
2024-02-24T07:01:24.134Z,4.00
2024-02-24T07:01:56.448Z,4.00
2024-02-24T07:02:28.467Z,4.00
2024-02-24T07:03:00.574Z,4.00
2024-02-24T07:03:35.339Z,4.00
2024-02-24T07:04:07.595Z,4.00
2024-02-24T07:04:39.781Z,4.00
2024-02-24T07:05:11.744Z,4.00
2024-02-24T07:05:43.819Z,4.00
2024-02-24T07:06:17.348Z,4.00
2024-02-24T07:06:49.333Z,4.00
2024-02-24T07:07:23.331Z,4.00
2024-02-24T07:07:56.540Z,4.00
2024-02-24T07:08:28.926Z,4.00
2024-02-24T07:09:00.969Z,4.00
2024-02-24T07:09:32.973Z,4.00
2024-02-24T07:10:05.712Z,4.00
2024-02-24T07:10:37.738Z,4.00
2024-02-24T07:11:09.778Z,4.00
2024-02-24T07:11:41.863Z,4.00
2024-02-24T07:12:13.962Z,4.00